sensor_id;sensor_type;location;lat;lon;timestamp;P1;durP1;ratioP1;P2;durP2;ratioP2
1467;SDS011;727;48.892;9.544;2023-03-21T00:00:30;5.50;;;4.60;;
1467;SDS011;727;48.892;9.544;2023-03-21T00:02:56;11.57;;;5.25;;
1467;SDS011;727;48.892;9.544;2023-03-21T00:05:24;4.50;;;3.72;;
1467;SDS011;727;48.892;9.544;2023-03-21T00:07:50;5.60;;;4.30;;
1467;SDS011;727;48.892;9.544;2023-03-21T00:10:17;8.88;;;4.65;;
1467;SDS011;727;48.892;9.544;2023-03-21T00:12:44;8.43;;;5.10;;
1467;SDS011;727;48.892;9.544;2023-03-21T00:15:14;5.32;;;4.22;;
1467;SDS011;727;48.892;9.544;2023-03-21T00:17:43;5.78;;;4.43;;
1467;SDS011;727;48.892;9.544;2023-03-21T00:20:10;7.47;;;5.20;;
1467;SDS011;727;48.892;9.544;2023-03-21T00:22:39;5.50;;;5.00;;
1467;SDS011;727;48.892;9.544;2023-03-21T00:25:06;9.93;;;4.95;;
1467;SDS011;727;48.892;9.544;2023-03-21T00:27:34;4.45;;;4.13;;
1467;SDS011;727;48.892;9.544;2023-03-21T00:30:02;6.25;;;5.30;;
1467;SDS011;727;48.892;9.544;2023-03-21T00:32:30;7.35;;;6.38;;
1467;SDS011;727;48.892;9.544;2023-03-21T00:34:58;7.72;;;3.95;;
1467;SDS011;727;48.892;9.544;2023-03-21T00:37:25;3.97;;;3.63;;
1467;SDS011;727;48.892;9.544;2023-03-21T00:39:52;3.63;;;3.33;;
1467;SDS011;727;48.892;9.544;2023-03-21T00:42:19;4.15;;;3.75;;
1467;SDS011;727;48.892;9.544;2023-03-21T00:44:45;5.55;;;3.47;;
1467;SDS011;727;48.892;9.544;2023-03-21T00:47:12;6.80;;;3.70;;
1467;SDS011;727;48.892;9.544;2023-03-21T00:49:39;4.43;;;3.83;;
1467;SDS011;727;48.892;9.544;2023-03-21T00:52:08;5.45;;;3.67;;
1467;SDS011;727;48.892;9.544;2023-03-21T00:54:36;7.13;;;3.85;;
1467;SDS011;727;48.892;9.544;2023-03-21T00:57:03;4.40;;;4.00;;
1467;SDS011;727;48.892;9.544;2023-03-21T00:59:29;3.97;;;3.58;;
1467;SDS011;727;48.892;9.544;2023-03-21T01:01:56;4.78;;;3.80;;
1467;SDS011;727;48.892;9.544;2023-03-21T01:04:24;6.65;;;4.10;;
1467;SDS011;727;48.892;9.544;2023-03-21T01:06:52;8.45;;;3.70;;
1467;SDS011;727;48.892;9.544;2023-03-21T01:09:21;4.70;;;3.50;;
1467;SDS011;727;48.892;9.544;2023-03-21T01:11:49;8.38;;;5.65;;
1467;SDS011;727;48.892;9.544;2023-03-21T01:14:17;3.50;;;3.20;;
1467;SDS011;727;48.892;9.544;2023-03-21T01:16:45;4.22;;;3.88;;
1467;SDS011;727;48.892;9.544;2023-03-21T01:19:13;5.22;;;3.40;;
1467;SDS011;727;48.892;9.544;2023-03-21T01:21:42;6.63;;;3.97;;
1467;SDS011;727;48.892;9.544;2023-03-21T01:24:09;4.45;;;4.15;;
1467;SDS011;727;48.892;9.544;2023-03-21T01:26:37;11.40;;;4.65;;
1467;SDS011;727;48.892;9.544;2023-03-21T01:29:04;6.53;;;4.75;;
1467;SDS011;727;48.892;9.544;2023-03-21T01:31:31;5.43;;;3.75;;
1467;SDS011;727;48.892;9.544;2023-03-21T01:33:57;4.78;;;4.38;;
1467;SDS011;727;48.892;9.544;2023-03-21T01:36:25;3.72;;;3.42;;
1467;SDS011;727;48.892;9.544;2023-03-21T01:38:52;5.13;;;4.72;;
1467;SDS011;727;48.892;9.544;2023-03-21T01:41:20;4.18;;;3.30;;
1467;SDS011;727;48.892;9.544;2023-03-21T01:43:51;3.90;;;3.47;;
1467;SDS011;727;48.892;9.544;2023-03-21T01:46:27;5.97;;;3.85;;
1467;SDS011;727;48.892;9.544;2023-03-21T01:49:00;7.32;;;4.80;;
1467;SDS011;727;48.892;9.544;2023-03-21T01:51:29;5.72;;;3.85;;
1467;SDS011;727;48.892;9.544;2023-03-21T01:54:00;4.50;;;3.70;;
1467;SDS011;727;48.892;9.544;2023-03-21T01:56:28;4.20;;;3.80;;
1467;SDS011;727;48.892;9.544;2023-03-21T01:59:01;4.50;;;4.07;;
1467;SDS011;727;48.892;9.544;2023-03-21T02:01:33;4.40;;;3.97;;
1467;SDS011;727;48.892;9.544;2023-03-21T02:04:02;4.90;;;4.40;;
1467;SDS011;727;48.892;9.544;2023-03-21T02:06:34;4.30;;;3.90;;
1467;SDS011;727;48.892;9.544;2023-03-21T02:09:05;4.60;;;3.80;;
1467;SDS011;727;48.892;9.544;2023-03-21T02:11:36;7.80;;;4.03;;
1467;SDS011;727;48.892;9.544;2023-03-21T02:14:05;4.78;;;4.28;;
1467;SDS011;727;48.892;9.544;2023-03-21T02:16:38;5.25;;;3.95;;
1467;SDS011;727;48.892;9.544;2023-03-21T02:19:20;3.80;;;3.50;;
1467;SDS011;727;48.892;9.544;2023-03-21T02:22:15;5.90;;;4.00;;
1467;SDS011;727;48.892;9.544;2023-03-21T02:24:54;5.45;;;4.95;;
1467;SDS011;727;48.892;9.544;2023-03-21T02:27:43;4.78;;;3.83;;
1467;SDS011;727;48.892;9.544;2023-03-21T02:33:26;5.55;;;5.00;;
1467;SDS011;727;48.892;9.544;2023-03-21T02:36:15;5.15;;;4.65;;
1467;SDS011;727;48.892;9.544;2023-03-21T02:38:52;10.32;;;5.10;;
1467;SDS011;727;48.892;9.544;2023-03-21T02:41:24;13.02;;;4.55;;
1467;SDS011;727;48.892;9.544;2023-03-21T02:43:57;5.07;;;4.43;;
1467;SDS011;727;48.892;9.544;2023-03-21T02:46:27;6.20;;;4.40;;
1467;SDS011;727;48.892;9.544;2023-03-21T02:48:59;5.60;;;3.90;;
1467;SDS011;727;48.892;9.544;2023-03-21T02:51:31;4.85;;;4.45;;
1467;SDS011;727;48.892;9.544;2023-03-21T02:54:02;4.97;;;4.53;;
1467;SDS011;727;48.892;9.544;2023-03-21T02:56:31;5.10;;;3.83;;
1467;SDS011;727;48.892;9.544;2023-03-21T02:59:00;5.43;;;4.55;;
1467;SDS011;727;48.892;9.544;2023-03-21T03:01:28;8.77;;;4.70;;
1467;SDS011;727;48.892;9.544;2023-03-21T03:03:56;7.95;;;4.80;;
1467;SDS011;727;48.892;9.544;2023-03-21T03:06:23;6.47;;;4.25;;
1467;SDS011;727;48.892;9.544;2023-03-21T03:09:04;7.43;;;5.60;;
1467;SDS011;727;48.892;9.544;2023-03-21T03:11:40;10.18;;;4.90;;
1467;SDS011;727;48.892;9.544;2023-03-21T03:14:12;7.90;;;4.63;;
1467;SDS011;727;48.892;9.544;2023-03-21T03:16:53;5.30;;;4.85;;
1467;SDS011;727;48.892;9.544;2023-03-21T03:19:29;6.75;;;5.85;;
1467;SDS011;727;48.892;9.544;2023-03-21T03:22:00;6.93;;;5.47;;
1467;SDS011;727;48.892;9.544;2023-03-21T03:24:32;8.20;;;5.65;;
1467;SDS011;727;48.892;9.544;2023-03-21T03:27:06;10.90;;;5.10;;
1467;SDS011;727;48.892;9.544;2023-03-21T03:29:36;7.15;;;5.07;;
1467;SDS011;727;48.892;9.544;2023-03-21T03:32:06;5.60;;;4.35;;
1467;SDS011;727;48.892;9.544;2023-03-21T03:34:39;4.70;;;4.05;;
1467;SDS011;727;48.892;9.544;2023-03-21T03:37:09;7.32;;;3.80;;
1467;SDS011;727;48.892;9.544;2023-03-21T03:39:41;7.35;;;4.40;;
1467;SDS011;727;48.892;9.544;2023-03-21T03:42:12;5.95;;;4.15;;
1467;SDS011;727;48.892;9.544;2023-03-21T03:44:42;6.20;;;4.07;;
1467;SDS011;727;48.892;9.544;2023-03-21T03:47:10;5.00;;;3.95;;
1467;SDS011;727;48.892;9.544;2023-03-21T03:49:40;5.47;;;4.30;;
1467;SDS011;727;48.892;9.544;2023-03-21T03:52:12;5.65;;;4.30;;
1467;SDS011;727;48.892;9.544;2023-03-21T03:54:47;5.10;;;4.60;;
1467;SDS011;727;48.892;9.544;2023-03-21T03:57:16;6.80;;;5.70;;
1467;SDS011;727;48.892;9.544;2023-03-21T03:59:44;5.63;;;5.13;;
1467;SDS011;727;48.892;9.544;2023-03-21T04:02:12;8.35;;;5.60;;
1467;SDS011;727;48.892;9.544;2023-03-21T04:04:39;4.60;;;4.13;;
1467;SDS011;727;48.892;9.544;2023-03-21T04:07:06;5.63;;;5.10;;
1467;SDS011;727;48.892;9.544;2023-03-21T04:09:33;8.52;;;5.15;;
1467;SDS011;727;48.892;9.544;2023-03-21T04:12:02;4.93;;;4.53;;
1467;SDS011;727;48.892;9.544;2023-03-21T04:14:29;7.60;;;4.85;;
1467;SDS011;727;48.892;9.544;2023-03-21T04:16:56;6.63;;;4.88;;
1467;SDS011;727;48.892;9.544;2023-03-21T04:19:23;5.25;;;4.75;;
1467;SDS011;727;48.892;9.544;2023-03-21T04:21:50;4.95;;;4.53;;
1467;SDS011;727;48.892;9.544;2023-03-21T04:24:17;6.82;;;5.10;;
1467;SDS011;727;48.892;9.544;2023-03-21T04:26:44;5.05;;;4.60;;
1467;SDS011;727;48.892;9.544;2023-03-21T04:29:12;4.70;;;4.30;;
1467;SDS011;727;48.892;9.544;2023-03-21T04:31:39;5.40;;;4.55;;
1467;SDS011;727;48.892;9.544;2023-03-21T04:34:05;5.72;;;5.22;;
1467;SDS011;727;48.892;9.544;2023-03-21T04:36:33;5.43;;;4.93;;
1467;SDS011;727;48.892;9.544;2023-03-21T04:39:06;5.97;;;5.20;;
1467;SDS011;727;48.892;9.544;2023-03-21T04:41:36;6.07;;;5.18;;
1467;SDS011;727;48.892;9.544;2023-03-21T04:44:03;6.82;;;4.60;;
1467;SDS011;727;48.892;9.544;2023-03-21T04:46:31;5.20;;;4.30;;
1467;SDS011;727;48.892;9.544;2023-03-21T04:48:58;6.35;;;4.80;;
1467;SDS011;727;48.892;9.544;2023-03-21T04:51:25;6.55;;;4.57;;
1467;SDS011;727;48.892;9.544;2023-03-21T04:53:52;6.85;;;4.90;;
1467;SDS011;727;48.892;9.544;2023-03-21T04:56:21;5.82;;;5.30;;
1467;SDS011;727;48.892;9.544;2023-03-21T04:58:54;7.40;;;5.40;;
1467;SDS011;727;48.892;9.544;2023-03-21T05:01:21;5.78;;;5.28;;
1467;SDS011;727;48.892;9.544;2023-03-21T05:03:49;5.78;;;5.13;;
1467;SDS011;727;48.892;9.544;2023-03-21T05:06:16;6.05;;;5.45;;
1467;SDS011;727;48.892;9.544;2023-03-21T05:08:43;6.00;;;5.43;;
1467;SDS011;727;48.892;9.544;2023-03-21T05:11:09;7.40;;;4.90;;
1467;SDS011;727;48.892;9.544;2023-03-21T05:13:36;5.30;;;4.30;;
1467;SDS011;727;48.892;9.544;2023-03-21T05:16:03;8.35;;;4.50;;
1467;SDS011;727;48.892;9.544;2023-03-21T05:18:31;7.18;;;4.60;;
1467;SDS011;727;48.892;9.544;2023-03-21T05:21:00;4.85;;;4.45;;
1467;SDS011;727;48.892;9.544;2023-03-21T05:23:28;8.57;;;5.63;;
1467;SDS011;727;48.892;9.544;2023-03-21T05:25:55;8.93;;;5.00;;
1467;SDS011;727;48.892;9.544;2023-03-21T05:28:22;5.13;;;4.63;;
1467;SDS011;727;48.892;9.544;2023-03-21T05:30:55;5.30;;;4.30;;
1467;SDS011;727;48.892;9.544;2023-03-21T05:33:22;7.05;;;4.18;;
1467;SDS011;727;48.892;9.544;2023-03-21T05:35:49;4.10;;;3.80;;
1467;SDS011;727;48.892;9.544;2023-03-21T05:38:17;5.10;;;4.32;;
1467;SDS011;727;48.892;9.544;2023-03-21T05:40:45;15.90;;;5.35;;
1467;SDS011;727;48.892;9.544;2023-03-21T05:43:12;6.05;;;5.00;;
1467;SDS011;727;48.892;9.544;2023-03-21T05:45:38;5.72;;;5.10;;
1467;SDS011;727;48.892;9.544;2023-03-21T05:48:05;10.80;;;7.47;;
1467;SDS011;727;48.892;9.544;2023-03-21T05:50:32;8.20;;;7.47;;
1467;SDS011;727;48.892;9.544;2023-03-21T05:52:59;8.13;;;6.85;;
1467;SDS011;727;48.892;9.544;2023-03-21T05:55:27;6.53;;;5.78;;
1467;SDS011;727;48.892;9.544;2023-03-21T05:57:54;8.07;;;7.10;;
1467;SDS011;727;48.892;9.544;2023-03-21T06:00:21;7.65;;;6.85;;
1467;SDS011;727;48.892;9.544;2023-03-21T06:02:48;14.98;;;6.50;;
1467;SDS011;727;48.892;9.544;2023-03-21T06:05:14;5.95;;;5.45;;
1467;SDS011;727;48.892;9.544;2023-03-21T06:07:41;6.55;;;5.90;;
1467;SDS011;727;48.892;9.544;2023-03-21T06:10:08;6.40;;;5.28;;
1467;SDS011;727;48.892;9.544;2023-03-21T06:12:37;7.15;;;5.70;;
1467;SDS011;727;48.892;9.544;2023-03-21T06:15:06;6.07;;;5.55;;
1467;SDS011;727;48.892;9.544;2023-03-21T06:17:34;7.18;;;5.38;;
1467;SDS011;727;48.892;9.544;2023-03-21T06:20:00;5.47;;;5.00;;
1467;SDS011;727;48.892;9.544;2023-03-21T06:22:28;6.43;;;5.32;;
1467;SDS011;727;48.892;9.544;2023-03-21T06:24:55;6.03;;;5.53;;
1467;SDS011;727;48.892;9.544;2023-03-21T06:27:22;9.27;;;6.90;;
1467;SDS011;727;48.892;9.544;2023-03-21T06:29:50;5.60;;;5.10;;
1467;SDS011;727;48.892;9.544;2023-03-21T06:32:17;11.88;;;6.22;;
1467;SDS011;727;48.892;9.544;2023-03-21T06:34:44;8.73;;;5.45;;
1467;SDS011;727;48.892;9.544;2023-03-21T06:37:11;8.35;;;4.68;;
1467;SDS011;727;48.892;9.544;2023-03-21T06:39:38;30.10;;;18.65;;
1467;SDS011;727;48.892;9.544;2023-03-21T06:42:05;13.43;;;9.40;;
1467;SDS011;727;48.892;9.544;2023-03-21T06:44:31;17.40;;;10.82;;
1467;SDS011;727;48.892;9.544;2023-03-21T06:47:00;11.00;;;8.60;;
1467;SDS011;727;48.892;9.544;2023-03-21T06:49:27;10.43;;;9.43;;
1467;SDS011;727;48.892;9.544;2023-03-21T06:51:54;8.65;;;7.07;;
1467;SDS011;727;48.892;9.544;2023-03-21T06:54:20;15.75;;;6.85;;
1467;SDS011;727;48.892;9.544;2023-03-21T06:56:48;6.45;;;5.78;;
1467;SDS011;727;48.892;9.544;2023-03-21T06:59:14;11.80;;;6.80;;
1467;SDS011;727;48.892;9.544;2023-03-21T07:01:41;8.73;;;6.93;;
1467;SDS011;727;48.892;9.544;2023-03-21T07:04:09;12.20;;;5.97;;
1467;SDS011;727;48.892;9.544;2023-03-21T07:06:36;7.85;;;6.30;;
1467;SDS011;727;48.892;9.544;2023-03-21T07:09:03;8.20;;;7.25;;
1467;SDS011;727;48.892;9.544;2023-03-21T07:11:31;7.65;;;6.95;;
1467;SDS011;727;48.892;9.544;2023-03-21T07:13:58;10.90;;;8.00;;
1467;SDS011;727;48.892;9.544;2023-03-21T07:16:25;6.32;;;5.30;;
1467;SDS011;727;48.892;9.544;2023-03-21T07:18:52;10.57;;;5.78;;
1467;SDS011;727;48.892;9.544;2023-03-21T07:21:20;6.28;;;5.47;;
1467;SDS011;727;48.892;9.544;2023-03-21T07:23:47;8.43;;;7.07;;
1467;SDS011;727;48.892;9.544;2023-03-21T07:26:14;5.75;;;5.03;;
1467;SDS011;727;48.892;9.544;2023-03-21T07:28:42;8.90;;;5.90;;
1467;SDS011;727;48.892;9.544;2023-03-21T07:31:11;9.52;;;5.75;;
1467;SDS011;727;48.892;9.544;2023-03-21T07:33:40;5.95;;;5.35;;
1467;SDS011;727;48.892;9.544;2023-03-21T07:36:08;7.82;;;5.85;;
1467;SDS011;727;48.892;9.544;2023-03-21T07:38:38;7.25;;;6.20;;
1467;SDS011;727;48.892;9.544;2023-03-21T07:41:05;8.30;;;6.53;;
1467;SDS011;727;48.892;9.544;2023-03-21T07:43:32;8.98;;;6.75;;
1467;SDS011;727;48.892;9.544;2023-03-21T07:45:59;10.93;;;7.28;;
1467;SDS011;727;48.892;9.544;2023-03-21T07:48:25;8.50;;;6.53;;
1467;SDS011;727;48.892;9.544;2023-03-21T07:50:53;7.22;;;6.07;;
1467;SDS011;727;48.892;9.544;2023-03-21T07:53:19;8.87;;;6.27;;
1467;SDS011;727;48.892;9.544;2023-03-21T07:55:49;9.17;;;5.70;;
1467;SDS011;727;48.892;9.544;2023-03-21T07:58:16;7.80;;;6.30;;
1467;SDS011;727;48.892;9.544;2023-03-21T08:00:43;14.13;;;5.93;;
1467;SDS011;727;48.892;9.544;2023-03-21T08:03:10;9.67;;;5.90;;
1467;SDS011;727;48.892;9.544;2023-03-21T08:05:37;11.47;;;6.40;;
1467;SDS011;727;48.892;9.544;2023-03-21T08:08:04;6.13;;;5.40;;
1467;SDS011;727;48.892;9.544;2023-03-21T08:10:31;7.10;;;6.60;;
1467;SDS011;727;48.892;9.544;2023-03-21T08:13:00;7.57;;;5.17;;
1467;SDS011;727;48.892;9.544;2023-03-21T08:15:26;5.90;;;5.10;;
1467;SDS011;727;48.892;9.544;2023-03-21T08:17:54;8.60;;;6.43;;
1467;SDS011;727;48.892;9.544;2023-03-21T08:20:21;14.17;;;5.70;;
1467;SDS011;727;48.892;9.544;2023-03-21T08:22:48;6.77;;;4.50;;
1467;SDS011;727;48.892;9.544;2023-03-21T08:25:16;5.60;;;4.50;;
1467;SDS011;727;48.892;9.544;2023-03-21T08:27:44;5.33;;;4.83;;
1467;SDS011;727;48.892;9.544;2023-03-21T08:30:14;5.37;;;4.87;;
1467;SDS011;727;48.892;9.544;2023-03-21T08:32:42;6.50;;;4.10;;
1467;SDS011;727;48.892;9.544;2023-03-21T08:35:10;9.30;;;4.57;;
1467;SDS011;727;48.892;9.544;2023-03-21T08:37:39;5.37;;;4.87;;
1467;SDS011;727;48.892;9.544;2023-03-21T08:40:08;6.97;;;4.40;;
1467;SDS011;727;48.892;9.544;2023-03-21T08:42:37;6.20;;;4.00;;
1467;SDS011;727;48.892;9.544;2023-03-21T08:45:05;7.07;;;3.73;;
1467;SDS011;727;48.892;9.544;2023-03-21T08:47:35;4.47;;;4.03;;
1467;SDS011;727;48.892;9.544;2023-03-21T08:50:02;7.63;;;4.43;;
1467;SDS011;727;48.892;9.544;2023-03-21T08:52:31;8.13;;;4.07;;
1467;SDS011;727;48.892;9.544;2023-03-21T08:54:58;4.53;;;4.13;;
1467;SDS011;727;48.892;9.544;2023-03-21T08:57:26;4.33;;;3.90;;
1467;SDS011;727;48.892;9.544;2023-03-21T08:59:52;4.10;;;3.50;;
1467;SDS011;727;48.892;9.544;2023-03-21T09:02:19;4.03;;;3.20;;
1467;SDS011;727;48.892;9.544;2023-03-21T09:04:48;3.20;;;3.00;;
1467;SDS011;727;48.892;9.544;2023-03-21T09:07:17;4.20;;;3.27;;
1467;SDS011;727;48.892;9.544;2023-03-21T09:09:44;2.47;;;2.23;;
1467;SDS011;727;48.892;9.544;2023-03-21T09:12:11;1.93;;;1.83;;
1467;SDS011;727;48.892;9.544;2023-03-21T09:14:38;2.70;;;2.50;;
1467;SDS011;727;48.892;9.544;2023-03-21T09:17:05;3.20;;;3.00;;
1467;SDS011;727;48.892;9.544;2023-03-21T09:19:32;3.30;;;3.00;;
1467;SDS011;727;48.892;9.544;2023-03-21T09:22:01;3.10;;;2.90;;
1467;SDS011;727;48.892;9.544;2023-03-21T09:24:28;6.57;;;2.40;;
1467;SDS011;727;48.892;9.544;2023-03-21T09:26:55;3.30;;;2.40;;
1467;SDS011;727;48.892;9.544;2023-03-21T09:29:22;4.50;;;2.67;;
1467;SDS011;727;48.892;9.544;2023-03-21T09:31:49;2.83;;;2.57;;
1467;SDS011;727;48.892;9.544;2023-03-21T09:34:17;2.93;;;2.33;;
1467;SDS011;727;48.892;9.544;2023-03-21T09:36:44;2.23;;;1.80;;
1467;SDS011;727;48.892;9.544;2023-03-21T09:39:13;3.43;;;2.27;;
1467;SDS011;727;48.892;9.544;2023-03-21T09:42:01;2.83;;;2.20;;
1467;SDS011;727;48.892;9.544;2023-03-21T09:44:41;2.23;;;2.03;;
1467;SDS011;727;48.892;9.544;2023-03-21T09:47:19;2.70;;;2.07;;
1467;SDS011;727;48.892;9.544;2023-03-21T09:49:50;3.00;;;2.60;;
1467;SDS011;727;48.892;9.544;2023-03-21T09:52:23;3.00;;;2.50;;
1467;SDS011;727;48.892;9.544;2023-03-21T09:54:54;2.50;;;2.30;;
1467;SDS011;727;48.892;9.544;2023-03-21T09:57:24;3.07;;;2.30;;
1467;SDS011;727;48.892;9.544;2023-03-21T09:59:56;1.93;;;1.70;;
1467;SDS011;727;48.892;9.544;2023-03-21T10:02:34;2.20;;;2.10;;
1467;SDS011;727;48.892;9.544;2023-03-21T10:05:05;2.43;;;2.23;;
1467;SDS011;727;48.892;9.544;2023-03-21T10:07:38;2.80;;;2.20;;
1467;SDS011;727;48.892;9.544;2023-03-21T10:10:12;3.70;;;2.30;;
1467;SDS011;727;48.892;9.544;2023-03-21T10:12:41;2.70;;;2.50;;
1467;SDS011;727;48.892;9.544;2023-03-21T10:15:09;4.60;;;2.20;;
1467;SDS011;727;48.892;9.544;2023-03-21T10:17:41;3.43;;;2.70;;
1467;SDS011;727;48.892;9.544;2023-03-21T10:20:11;3.57;;;2.30;;
1467;SDS011;727;48.892;9.544;2023-03-21T10:22:40;4.47;;;2.37;;
1467;SDS011;727;48.892;9.544;2023-03-21T10:25:10;2.60;;;2.40;;
1467;SDS011;727;48.892;9.544;2023-03-21T10:27:41;2.50;;;2.00;;
1467;SDS011;727;48.892;9.544;2023-03-21T10:30:10;2.60;;;2.13;;
1467;SDS011;727;48.892;9.544;2023-03-21T10:32:45;2.37;;;2.10;;
1467;SDS011;727;48.892;9.544;2023-03-21T10:35:12;2.30;;;1.80;;
1467;SDS011;727;48.892;9.544;2023-03-21T10:37:39;2.57;;;2.03;;
1467;SDS011;727;48.892;9.544;2023-03-21T10:40:09;3.40;;;2.23;;
1467;SDS011;727;48.892;9.544;2023-03-21T10:42:42;4.60;;;3.13;;
1467;SDS011;727;48.892;9.544;2023-03-21T10:45:13;2.10;;;1.90;;
1467;SDS011;727;48.892;9.544;2023-03-21T10:47:42;3.23;;;1.97;;
1467;SDS011;727;48.892;9.544;2023-03-21T10:50:12;2.60;;;2.40;;
1467;SDS011;727;48.892;9.544;2023-03-21T10:52:42;2.57;;;2.07;;
1467;SDS011;727;48.892;9.544;2023-03-21T10:55:19;2.83;;;2.13;;
1467;SDS011;727;48.892;9.544;2023-03-21T10:57:51;3.60;;;2.10;;
1467;SDS011;727;48.892;9.544;2023-03-21T11:00:23;4.30;;;1.83;;
1467;SDS011;727;48.892;9.544;2023-03-21T11:02:53;2.23;;;2.03;;
1467;SDS011;727;48.892;9.544;2023-03-21T11:05:21;3.33;;;2.03;;
1467;SDS011;727;48.892;9.544;2023-03-21T11:07:57;2.57;;;2.20;;
1467;SDS011;727;48.892;9.544;2023-03-21T11:10:29;1.93;;;1.60;;
1467;SDS011;727;48.892;9.544;2023-03-21T11:12:59;2.00;;;1.90;;
1467;SDS011;727;48.892;9.544;2023-03-21T11:15:31;2.10;;;1.80;;
1467;SDS011;727;48.892;9.544;2023-03-21T11:18:12;2.80;;;1.90;;
1467;SDS011;727;48.892;9.544;2023-03-21T11:20:41;2.00;;;1.53;;
1467;SDS011;727;48.892;9.544;2023-03-21T11:23:15;2.77;;;2.00;;
1467;SDS011;727;48.892;9.544;2023-03-21T11:25:44;2.07;;;1.70;;
1467;SDS011;727;48.892;9.544;2023-03-21T11:28:15;2.70;;;2.10;;
1467;SDS011;727;48.892;9.544;2023-03-21T11:30:48;2.53;;;2.33;;
1467;SDS011;727;48.892;9.544;2023-03-21T11:33:18;2.00;;;1.90;;
1467;SDS011;727;48.892;9.544;2023-03-21T11:35:56;5.20;;;2.10;;
1467;SDS011;727;48.892;9.544;2023-03-21T11:38:29;3.77;;;2.43;;
1467;SDS011;727;48.892;9.544;2023-03-21T11:41:00;2.47;;;1.93;;
1467;SDS011;727;48.892;9.544;2023-03-21T11:43:28;2.63;;;1.90;;
1467;SDS011;727;48.892;9.544;2023-03-21T11:45:57;2.33;;;2.13;;
1467;SDS011;727;48.892;9.544;2023-03-21T11:48:25;2.30;;;2.10;;
1467;SDS011;727;48.892;9.544;2023-03-21T11:50:54;1.67;;;1.57;;
1467;SDS011;727;48.892;9.544;2023-03-21T11:53:33;5.20;;;2.53;;
1467;SDS011;727;48.892;9.544;2023-03-21T11:56:19;1.93;;;1.00;;
1467;SDS011;727;48.892;9.544;2023-03-21T11:58:56;1.30;;;1.20;;
1467;SDS011;727;48.892;9.544;2023-03-21T12:01:43;4.53;;;1.57;;
1467;SDS011;727;48.892;9.544;2023-03-21T12:04:29;2.23;;;1.40;;
1467;SDS011;727;48.892;9.544;2023-03-21T12:07:07;3.03;;;1.70;;
1467;SDS011;727;48.892;9.544;2023-03-21T12:09:51;6.33;;;1.17;;
1467;SDS011;727;48.892;9.544;2023-03-21T12:12:31;2.23;;;1.60;;
1467;SDS011;727;48.892;9.544;2023-03-21T12:15:08;2.00;;;1.33;;
1467;SDS011;727;48.892;9.544;2023-03-21T12:17:42;2.10;;;1.90;;
1467;SDS011;727;48.892;9.544;2023-03-21T12:20:22;1.50;;;1.40;;
1467;SDS011;727;48.892;9.544;2023-03-21T12:23:06;2.33;;;1.80;;
1467;SDS011;727;48.892;9.544;2023-03-21T12:25:53;8.60;;;1.73;;
1467;SDS011;727;48.892;9.544;2023-03-21T12:28:29;2.13;;;1.60;;
1467;SDS011;727;48.892;9.544;2023-03-21T12:31:07;2.40;;;2.10;;
1467;SDS011;727;48.892;9.544;2023-03-21T12:33:47;1.90;;;1.70;;
1467;SDS011;727;48.892;9.544;2023-03-21T12:36:26;1.37;;;1.27;;
1467;SDS011;727;48.892;9.544;2023-03-21T12:39:08;6.73;;;2.10;;
1467;SDS011;727;48.892;9.544;2023-03-21T12:41:42;7.30;;;1.97;;
1467;SDS011;727;48.892;9.544;2023-03-21T12:44:16;1.70;;;1.57;;
1467;SDS011;727;48.892;9.544;2023-03-21T12:46:47;1.70;;;1.60;;
1467;SDS011;727;48.892;9.544;2023-03-21T12:49:21;1.83;;;1.73;;
1467;SDS011;727;48.892;9.544;2023-03-21T12:51:54;1.50;;;1.40;;
1467;SDS011;727;48.892;9.544;2023-03-21T12:54:26;2.90;;;1.80;;
1467;SDS011;727;48.892;9.544;2023-03-21T12:56:58;4.73;;;1.50;;
1467;SDS011;727;48.892;9.544;2023-03-21T12:59:32;2.13;;;1.40;;
1467;SDS011;727;48.892;9.544;2023-03-21T13:02:09;1.90;;;1.80;;
1467;SDS011;727;48.892;9.544;2023-03-21T13:04:44;1.57;;;1.47;;
1467;SDS011;727;48.892;9.544;2023-03-21T13:07:20;4.23;;;2.10;;
1467;SDS011;727;48.892;9.544;2023-03-21T13:09:51;1.70;;;1.60;;
1467;SDS011;727;48.892;9.544;2023-03-21T13:12:23;2.40;;;1.70;;
1467;SDS011;727;48.892;9.544;2023-03-21T13:14:58;3.87;;;2.00;;
1467;SDS011;727;48.892;9.544;2023-03-21T13:17:32;1.87;;;1.77;;
1467;SDS011;727;48.892;9.544;2023-03-21T13:20:07;2.03;;;1.80;;
1467;SDS011;727;48.892;9.544;2023-03-21T13:22:40;1.53;;;1.43;;
1467;SDS011;727;48.892;9.544;2023-03-21T13:25:15;3.10;;;1.83;;
1467;SDS011;727;48.892;9.544;2023-03-21T13:27:44;2.60;;;1.97;;
1467;SDS011;727;48.892;9.544;2023-03-21T13:30:19;2.90;;;1.70;;
1467;SDS011;727;48.892;9.544;2023-03-21T13:32:50;2.20;;;2.00;;
1467;SDS011;727;48.892;9.544;2023-03-21T13:35:23;3.80;;;1.70;;
1467;SDS011;727;48.892;9.544;2023-03-21T13:38:02;3.40;;;2.37;;
1467;SDS011;727;48.892;9.544;2023-03-21T13:40:37;4.73;;;2.63;;
1467;SDS011;727;48.892;9.544;2023-03-21T13:46:07;8.57;;;3.40;;
1467;SDS011;727;48.892;9.544;2023-03-21T13:54:15;2.33;;;1.90;;
1467;SDS011;727;48.892;9.544;2023-03-21T13:56:48;4.00;;;2.20;;
1467;SDS011;727;48.892;9.544;2023-03-21T13:59:16;3.83;;;2.30;;
1467;SDS011;727;48.892;9.544;2023-03-21T14:04:33;2.20;;;2.00;;
1467;SDS011;727;48.892;9.544;2023-03-21T14:07:01;3.10;;;2.47;;
1467;SDS011;727;48.892;9.544;2023-03-21T14:09:32;2.13;;;1.93;;
1467;SDS011;727;48.892;9.544;2023-03-21T14:12:02;5.30;;;2.20;;
1467;SDS011;727;48.892;9.544;2023-03-21T14:14:33;5.10;;;2.70;;
1467;SDS011;727;48.892;9.544;2023-03-21T14:17:11;4.43;;;2.40;;
1467;SDS011;727;48.892;9.544;2023-03-21T14:19:38;2.90;;;1.77;;
1467;SDS011;727;48.892;9.544;2023-03-21T14:22:08;5.27;;;1.73;;
1467;SDS011;727;48.892;9.544;2023-03-21T14:24:36;2.20;;;2.10;;
1467;SDS011;727;48.892;9.544;2023-03-21T14:27:05;6.10;;;3.27;;
1467;SDS011;727;48.892;9.544;2023-03-21T14:29:32;1.60;;;1.50;;
1467;SDS011;727;48.892;9.544;2023-03-21T14:32:00;2.70;;;1.70;;
1467;SDS011;727;48.892;9.544;2023-03-21T14:34:31;2.80;;;2.33;;
1467;SDS011;727;48.892;9.544;2023-03-21T14:37:00;4.03;;;2.33;;
1467;SDS011;727;48.892;9.544;2023-03-21T14:39:28;6.37;;;2.13;;
1467;SDS011;727;48.892;9.544;2023-03-21T14:41:59;7.00;;;1.80;;
1467;SDS011;727;48.892;9.544;2023-03-21T14:44:31;4.60;;;2.47;;
1467;SDS011;727;48.892;9.544;2023-03-21T14:47:01;3.10;;;2.80;;
1467;SDS011;727;48.892;9.544;2023-03-21T14:49:31;2.50;;;2.27;;
1467;SDS011;727;48.892;9.544;2023-03-21T14:52:00;2.63;;;2.43;;
1467;SDS011;727;48.892;9.544;2023-03-21T14:54:28;2.40;;;2.10;;
1467;SDS011;727;48.892;9.544;2023-03-21T14:56:57;2.43;;;2.30;;
1467;SDS011;727;48.892;9.544;2023-03-21T14:59:28;2.20;;;2.00;;
1467;SDS011;727;48.892;9.544;2023-03-21T15:01:58;6.23;;;3.07;;
1467;SDS011;727;48.892;9.544;2023-03-21T15:04:27;8.20;;;3.20;;
1467;SDS011;727;48.892;9.544;2023-03-21T15:06:58;4.33;;;2.10;;
1467;SDS011;727;48.892;9.544;2023-03-21T15:09:29;2.77;;;2.33;;
1467;SDS011;727;48.892;9.544;2023-03-21T15:11:57;2.33;;;1.90;;
1467;SDS011;727;48.892;9.544;2023-03-21T15:14:27;3.13;;;2.10;;
1467;SDS011;727;48.892;9.544;2023-03-21T15:16:56;3.40;;;2.80;;
1467;SDS011;727;48.892;9.544;2023-03-21T15:19:30;4.20;;;2.80;;
1467;SDS011;727;48.892;9.544;2023-03-21T15:22:02;8.10;;;2.47;;
1467;SDS011;727;48.892;9.544;2023-03-21T15:24:38;3.63;;;2.20;;
1467;SDS011;727;48.892;9.544;2023-03-21T15:27:11;4.47;;;3.23;;
1467;SDS011;727;48.892;9.544;2023-03-21T15:29:41;2.40;;;2.30;;
1467;SDS011;727;48.892;9.544;2023-03-21T15:32:12;3.83;;;3.00;;
1467;SDS011;727;48.892;9.544;2023-03-21T15:34:42;4.80;;;3.57;;
1467;SDS011;727;48.892;9.544;2023-03-21T15:37:15;3.83;;;3.17;;
1467;SDS011;727;48.892;9.544;2023-03-21T15:39:46;3.37;;;3.07;;
1467;SDS011;727;48.892;9.544;2023-03-21T15:42:23;5.73;;;4.00;;
1467;SDS011;727;48.892;9.544;2023-03-21T15:44:54;3.33;;;3.03;;
1467;SDS011;727;48.892;9.544;2023-03-21T15:50:21;5.50;;;2.80;;
1467;SDS011;727;48.892;9.544;2023-03-21T15:52:53;3.67;;;2.60;;
1467;SDS011;727;48.892;9.544;2023-03-21T15:55:22;3.43;;;3.13;;
1467;SDS011;727;48.892;9.544;2023-03-21T15:57:52;3.57;;;3.27;;
1467;SDS011;727;48.892;9.544;2023-03-21T16:00:26;3.63;;;2.90;;
1467;SDS011;727;48.892;9.544;2023-03-21T16:03:01;3.73;;;3.30;;
1467;SDS011;727;48.892;9.544;2023-03-21T16:05:33;9.10;;;3.90;;